EGVN Airport Information

Runway Information
Runway 08 Length 10007 ft width 184 ft
Elevation 284 ft Threshold 0 ft Heading 74
Runway 26 Length 10007 ft Width 184 ft
Elevation 249 ft Threshold 0 ft Heading 254
Airport Frequencies
Type APP Name APP Frequency 127.25 MHZ
Type APP Name Frequency 297.8 MHZ
Type APP Name Frequency 362.3 MHZ
Type ATIS Name ATIS Frequency 259 MHZ
Type CAC Name CAC Frequency 124.275 MHZ
Type GND Name GND Frequency 121.725 MHZ
Type GRN Name Frequency 240.55 MHZ
Type MISC Name ZONE Frequency 119 MHZ
Type OPS Name OPS Frequency 130.075 MHZ
Type RDR Name DIR Frequency 133.755 MHZ
Type TWR Name TWR Frequency 123.72 MHZ
Airport Navaids
Type NDB Name Brize Norton Frequency 386 KHZ
Type TACAN Name Brize Norton Frequency 111900 KHZ
Airport Weather Information & NOTAM
ADDS - METARS form results

(0745 UTC 23 October 2021)
Data provider http://aviationweather.gov/metar/data/
 
METAR text: EGVN 230720Z 00000KT 9999 BKN042 09/07 Q1024 NOSIG RMK BLU BLU
Conditions at: EGVN (BRIZE NORTON RAF, GB) observed 0720 UTC 23 October 2021
Temperature: 9.0°C (48°F)
Dewpoint: 7.0°C (45°F) [RH = 87%]
Pressure (altimeter): 30.24 inches Hg (1024.0 mb)
Winds: calm
Visibility: 6 or more miles (10+ km)
Ceiling: 4200 feet AGL
Clouds: broken clouds at 4200 feet AGL
Weather: no significant weather observed at this time

METAR text: EGVN 230650Z 25001KT 9999 BKN042 09/07 Q1024 NOSIG RMK BLU BLU
Conditions at: EGVN (BRIZE NORTON RAF, GB) observed 0650 UTC 23 October 2021
Temperature: 9.0°C (48°F)
Dewpoint: 7.0°C (45°F) [RH = 87%]
Pressure (altimeter): 30.24 inches Hg (1024.0 mb)
Winds: from the WSW (250 degrees) at 1 MPH (1 knots; 0.5 m/s)
Visibility: 6 or more miles (10+ km)
Ceiling: 4200 feet AGL
Clouds: broken clouds at 4200 feet AGL
Weather: no significant weather observed at this time

Forecast for: EGVN (BRIZE NORTON RAF, GB)
Text: TAF EGVN 230736Z 2309/2409 VRB05KT 9999 BKN040
Forecast period: 0900 UTC 23 October 2021 to 0900 UTC 24 October 2021
Forecast type: FROM: standard forecast or significant change
Winds: variable direction winds at 6 MPH (5 knots; 2.6 m/s)
Visibility: 6 or more miles (10+ km)
Ceiling: 4000 feet AGL
Clouds: broken clouds at 4000 feet AGL
Weather: no significant weather forecast for this period
Text: PROB30
Forecast period: 1000 to 1600 UTC 23 October 2021
Forecast type: TEMPORARY: The following changes expected for less than half the time period
Visibility: missing
Ceiling: at least 12,000 feet AGL
Clouds: scattered clouds at 2400 feet AGL
Weather: no significant weather forecast for this period